createdAt,value
2019-01-09T00:01:28.932Z,3.22
2019-01-09T00:03:56.287Z,3.45
2019-01-09T00:06:23.613Z,3.10
2019-01-09T00:08:51.032Z,3.70
2019-01-09T00:11:18.345Z,3.02
2019-01-09T00:13:45.697Z,2.37
2019-01-09T00:16:13.208Z,2.92
2019-01-09T00:18:40.588Z,3.05
2019-01-09T00:21:07.908Z,3.92
2019-01-09T00:23:35.279Z,3.80
2019-01-09T00:26:02.629Z,3.42
2019-01-09T00:28:29.960Z,3.85
2019-01-09T00:30:57.342Z,4.30
2019-01-09T00:33:24.596Z,4.30
2019-01-09T00:35:52.008Z,3.50
2019-01-09T00:38:19.427Z,4.58
2019-01-09T00:40:46.800Z,4.53
2019-01-09T00:43:14.162Z,3.90
2019-01-09T00:45:41.514Z,2.80
2019-01-09T00:48:08.840Z,3.58
2019-01-09T00:50:36.262Z,4.17
2019-01-09T00:53:03.712Z,3.75
2019-01-09T00:55:31.016Z,4.08
2019-01-09T00:57:58.432Z,3.83
2019-01-09T01:00:25.908Z,4.30
2019-01-09T01:03:43.274Z,3.80
2019-01-09T01:06:53.348Z,3.98
2019-01-09T01:09:56.938Z,2.98
2019-01-09T01:13:16.808Z,3.47
2019-01-09T01:16:44.103Z,3.35
2019-01-09T01:19:57.683Z,4.78
2019-01-09T01:23:04.445Z,4.05
2019-01-09T01:26:09.372Z,3.40
2019-01-09T01:29:13.018Z,3.85
2019-01-09T01:32:00.810Z,4.33
2019-01-09T01:35:08.253Z,3.77
2019-01-09T01:38:04.820Z,4.47
2019-01-09T01:41:03.812Z,3.90
2019-01-09T01:43:49.038Z,3.62
2019-01-09T01:47:07.470Z,3.10
2019-01-09T01:49:54.859Z,4.17
2019-01-09T01:53:12.852Z,3.33
2019-01-09T01:56:12.500Z,3.25
2019-01-09T01:58:50.365Z,3.83
2019-01-09T02:02:08.512Z,4.37
2019-01-09T02:05:00.901Z,3.62
2019-01-09T02:07:48.948Z,3.92
2019-01-09T02:11:19.200Z,3.75
2019-01-09T02:14:01.713Z,4.47
2019-01-09T02:17:11.092Z,2.85
2019-01-09T02:19:49.749Z,3.65
2019-01-09T02:22:47.548Z,3.87
2019-01-09T02:25:59.408Z,3.60
2019-01-09T02:28:59.216Z,3.20
2019-01-09T02:32:01.139Z,3.35
2019-01-09T02:34:28.685Z,3.92
2019-01-09T02:36:56.049Z,3.75
2019-01-09T02:39:23.406Z,3.77
2019-01-09T02:41:50.726Z,3.35
2019-01-09T02:44:18.039Z,4.20
2019-01-09T02:46:45.339Z,3.67
2019-01-09T02:49:12.680Z,4.30
2019-01-09T02:51:39.995Z,3.52
2019-01-09T02:54:07.330Z,3.35
2019-01-09T02:56:34.825Z,3.75
2019-01-09T02:59:02.067Z,2.85
2019-01-09T03:01:29.381Z,3.35
2019-01-09T03:03:56.735Z,3.45
2019-01-09T03:06:24.126Z,3.87
2019-01-09T03:08:51.466Z,2.50
2019-01-09T03:11:18.843Z,3.30
2019-01-09T03:13:46.229Z,3.00
2019-01-09T03:16:13.529Z,2.27
2019-01-09T03:18:40.859Z,3.35
2019-01-09T03:21:08.233Z,2.72
2019-01-09T03:23:35.545Z,3.05
2019-01-09T03:26:02.791Z,2.92
2019-01-09T03:28:30.131Z,2.70
2019-01-09T03:30:57.574Z,3.00
2019-01-09T03:33:24.893Z,2.25
2019-01-09T03:35:52.251Z,2.70
2019-01-09T03:38:19.645Z,2.67
2019-01-09T03:40:47.006Z,3.45
2019-01-09T03:43:14.352Z,2.12
2019-01-09T03:45:41.575Z,2.65
2019-01-09T03:48:08.938Z,2.70
2019-01-09T03:50:36.295Z,2.37
2019-01-09T03:53:03.668Z,3.05
2019-01-09T03:55:30.997Z,2.60
2019-01-09T03:57:58.351Z,2.08
2019-01-09T04:00:25.585Z,2.62
2019-01-09T04:02:52.948Z,2.37
2019-01-09T04:05:20.403Z,2.58
2019-01-09T04:07:47.748Z,2.20
2019-01-09T04:10:15.070Z,2.50
2019-01-09T04:12:42.407Z,2.35
2019-01-09T04:15:09.740Z,2.42
2019-01-09T04:17:37.157Z,2.20
2019-01-09T04:20:04.836Z,1.82
2019-01-09T04:22:32.229Z,2.95
2019-01-09T04:24:59.545Z,2.67
2019-01-09T04:27:26.872Z,2.15
2019-01-09T04:29:54.217Z,2.10
2019-01-09T04:32:21.545Z,2.27
2019-01-09T04:34:48.923Z,2.17
2019-01-09T04:37:16.260Z,1.60
2019-01-09T04:39:43.585Z,2.35
2019-01-09T04:42:10.923Z,2.17
2019-01-09T04:44:38.225Z,2.02
2019-01-09T04:47:05.569Z,2.20
2019-01-09T04:49:32.905Z,2.40
2019-01-09T04:52:00.246Z,2.00
2019-01-09T04:54:27.575Z,2.80
2019-01-09T04:56:56.894Z,1.50
2019-01-09T04:59:24.225Z,2.00
2019-01-09T05:01:51.654Z,2.25
2019-01-09T05:04:19.014Z,2.12
2019-01-09T05:06:47.301Z,2.47
2019-01-09T05:09:14.664Z,2.15
2019-01-09T05:11:41.925Z,2.25
2019-01-09T05:14:09.249Z,2.08
2019-01-09T05:16:36.470Z,2.40
2019-01-09T05:19:03.749Z,2.25
2019-01-09T05:21:31.075Z,2.50
2019-01-09T05:23:58.461Z,1.92
2019-01-09T05:26:25.829Z,2.05
2019-01-09T05:28:53.264Z,2.27
2019-01-09T05:31:20.589Z,2.90
2019-01-09T05:33:47.903Z,3.00
2019-01-09T05:36:15.222Z,2.92
2019-01-09T05:38:42.525Z,3.55
2019-01-09T05:41:09.793Z,2.77
2019-01-09T05:43:37.135Z,3.00
2019-01-09T05:46:04.501Z,3.90
2019-01-09T05:48:31.857Z,2.62
2019-01-09T05:50:59.209Z,2.92
2019-01-09T05:53:26.536Z,2.40
2019-01-09T05:55:53.942Z,2.98
2019-01-09T05:58:21.515Z,3.10
2019-01-09T06:00:48.880Z,2.60
2019-01-09T06:03:16.255Z,2.85
2019-01-09T06:05:43.705Z,2.83
2019-01-09T06:08:11.146Z,2.40
2019-01-09T06:10:38.417Z,2.70
2019-01-09T06:13:05.734Z,2.45
2019-01-09T06:15:33.053Z,2.58
2019-01-09T06:18:00.398Z,2.65
2019-01-09T06:20:27.733Z,2.72
2019-01-09T06:22:55.065Z,2.45
2019-01-09T06:25:22.432Z,2.52
2019-01-09T06:27:49.771Z,3.47
2019-01-09T06:30:17.143Z,2.30
2019-01-09T06:32:44.448Z,2.87
2019-01-09T06:35:11.869Z,3.27
2019-01-09T06:37:39.194Z,3.77
2019-01-09T06:40:06.727Z,2.98
2019-01-09T06:42:34.071Z,3.45
2019-01-09T06:45:01.409Z,2.85
2019-01-09T06:47:28.783Z,2.58
2019-01-09T06:49:56.104Z,3.58
2019-01-09T06:52:23.322Z,2.85
2019-01-09T06:54:50.648Z,3.10
2019-01-09T06:57:17.999Z,2.40
2019-01-09T06:59:45.334Z,3.45
2019-01-09T07:02:12.692Z,2.47
2019-01-09T07:04:40.039Z,3.00
2019-01-09T07:07:07.386Z,2.80
2019-01-09T07:09:34.703Z,2.60
2019-01-09T07:12:02.038Z,2.70
2019-01-09T07:14:29.264Z,2.55
2019-01-09T07:16:56.590Z,2.35
2019-01-09T07:19:23.813Z,3.27
2019-01-09T07:21:51.136Z,2.60
2019-01-09T07:24:18.407Z,2.80
2019-01-09T07:26:45.708Z,2.55
2019-01-09T07:29:13.006Z,2.58
2019-01-09T07:31:40.548Z,3.17
2019-01-09T07:34:07.912Z,3.10
2019-01-09T07:36:35.119Z,2.77
2019-01-09T07:39:03.307Z,2.85
2019-01-09T07:41:30.638Z,2.90
2019-01-09T07:43:57.854Z,3.50
2019-01-09T07:46:25.055Z,2.55
2019-01-09T07:48:52.265Z,3.40
2019-01-09T07:51:19.514Z,3.30
2019-01-09T07:53:46.947Z,2.85
2019-01-09T07:56:14.265Z,3.05
2019-01-09T07:58:41.591Z,3.08
2019-01-09T08:01:08.927Z,2.17
2019-01-09T08:03:36.127Z,2.67
2019-01-09T08:06:03.339Z,2.58
2019-01-09T08:08:30.763Z,2.85
2019-01-09T08:10:58.093Z,3.45
2019-01-09T08:13:25.389Z,3.95
2019-01-09T08:15:52.733Z,3.87
2019-01-09T08:18:20.027Z,3.27
2019-01-09T08:20:47.346Z,3.70
2019-01-09T08:23:14.667Z,3.55
2019-01-09T08:25:41.933Z,3.08
2019-01-09T08:28:09.185Z,3.62
2019-01-09T08:30:36.545Z,3.45
2019-01-09T08:33:03.803Z,3.98
2019-01-09T08:35:31.148Z,3.47
2019-01-09T08:38:02.864Z,3.35
2019-01-09T08:40:29.029Z,3.30
2019-01-09T08:42:56.749Z,4.05
2019-01-09T08:45:23.969Z,3.27
2019-01-09T08:47:51.301Z,3.77
2019-01-09T08:50:18.574Z,3.52
2019-01-09T08:52:45.823Z,3.83
2019-01-09T08:55:13.125Z,3.42
2019-01-09T08:57:40.417Z,3.40
2019-01-09T09:00:09.421Z,3.95
2019-01-09T09:02:36.747Z,3.20
2019-01-09T09:05:04.201Z,3.45
2019-01-09T09:07:31.710Z,3.55
2019-01-09T09:09:58.891Z,3.50
2019-01-09T09:12:26.079Z,4.05
2019-01-09T09:14:53.281Z,3.75
2019-01-09T09:17:20.345Z,3.50
2019-01-09T09:19:47.745Z,3.05
2019-01-09T09:22:14.953Z,3.30
2019-01-09T09:24:42.276Z,2.90
2019-01-09T09:27:09.505Z,3.77
2019-01-09T09:29:36.818Z,3.87
2019-01-09T09:32:04.116Z,3.20
2019-01-09T09:34:31.466Z,3.53
2019-01-09T09:36:58.669Z,4.50
2019-01-09T09:39:25.982Z,3.70
2019-01-09T09:41:53.299Z,3.53
2019-01-09T09:44:20.518Z,3.70
2019-01-09T09:46:47.829Z,3.57
2019-01-09T09:49:16.975Z,3.40
2019-01-09T09:51:44.404Z,4.33
2019-01-09T09:54:11.629Z,3.60
2019-01-09T09:56:38.971Z,3.77
2019-01-09T09:59:06.259Z,4.17
2019-01-09T10:01:33.612Z,3.77
2019-01-09T10:04:01.025Z,3.70
2019-01-09T10:06:28.376Z,3.80
2019-01-09T10:08:55.600Z,3.70
2019-01-09T10:11:22.959Z,3.70
2019-01-09T10:13:50.282Z,3.47
2019-01-09T10:16:17.509Z,3.63
2019-01-09T10:18:44.723Z,3.80
2019-01-09T10:21:11.959Z,3.77
2019-01-09T10:23:39.336Z,3.63
2019-01-09T10:26:06.644Z,3.53
2019-01-09T10:28:33.972Z,4.07
2019-01-09T10:31:01.185Z,3.33
2019-01-09T10:33:28.388Z,3.83
2019-01-09T10:35:55.688Z,3.73
2019-01-09T10:38:22.930Z,3.80
2019-01-09T10:40:50.150Z,3.97
2019-01-09T10:43:17.419Z,3.20
2019-01-09T10:45:44.744Z,3.47
2019-01-09T10:48:11.984Z,3.47
2019-01-09T10:50:39.312Z,3.43
2019-01-09T10:53:07.366Z,4.13
2019-01-09T10:55:34.670Z,3.73
2019-01-09T10:58:02.025Z,4.03
2019-01-09T11:00:29.344Z,3.77
2019-01-09T11:02:56.763Z,3.67
2019-01-09T11:05:23.990Z,3.73
2019-01-09T11:07:51.301Z,3.73
2019-01-09T11:10:18.785Z,4.30
2019-01-09T11:12:46.789Z,3.30
2019-01-09T11:15:14.248Z,2.93
2019-01-09T11:17:41.564Z,3.17
2019-01-09T11:20:12.429Z,3.40
2019-01-09T11:22:39.765Z,3.27
2019-01-09T11:25:09.394Z,3.53
2019-01-09T11:27:36.632Z,3.73
2019-01-09T11:30:06.387Z,3.90
2019-01-09T11:32:33.686Z,3.40
2019-01-09T11:35:00.892Z,3.20
2019-01-09T11:37:28.216Z,3.43
2019-01-09T11:39:55.416Z,3.30
2019-01-09T11:42:22.632Z,2.83
2019-01-09T11:44:49.836Z,2.90
2019-01-09T11:47:17.089Z,2.70
2019-01-09T11:49:44.377Z,3.13
2019-01-09T11:52:11.704Z,2.77
2019-01-09T11:54:39.017Z,2.50
2019-01-09T11:57:06.353Z,2.50
2019-01-09T11:59:33.661Z,1.97
2019-01-09T12:02:00.898Z,2.13
2019-01-09T12:04:28.203Z,2.27
2019-01-09T12:06:55.562Z,2.20
2019-01-09T12:09:22.759Z,2.27
2019-01-09T12:11:50.099Z,1.57
2019-01-09T12:14:17.322Z,2.47
2019-01-09T12:16:44.541Z,2.00
2019-01-09T12:19:11.877Z,2.73
2019-01-09T12:21:39.249Z,2.00
2019-01-09T12:24:06.501Z,2.60
2019-01-09T12:26:33.807Z,1.97
2019-01-09T12:29:01.042Z,1.87
2019-01-09T12:31:28.250Z,2.47
2019-01-09T12:33:55.562Z,1.80
2019-01-09T12:36:22.850Z,2.03
2019-01-09T12:38:50.192Z,2.40
2019-01-09T12:41:17.553Z,2.53
2019-01-09T12:43:44.895Z,2.43
2019-01-09T12:46:12.222Z,2.20
2019-01-09T12:48:39.522Z,2.50
2019-01-09T12:51:06.867Z,2.23
2019-01-09T12:53:34.408Z,2.50
2019-01-09T12:56:01.667Z,2.80
2019-01-09T12:58:28.919Z,2.27
2019-01-09T13:00:56.268Z,2.80
2019-01-09T13:03:23.459Z,2.00
2019-01-09T13:05:50.816Z,1.70
2019-01-09T13:08:18.149Z,2.33
2019-01-09T13:10:45.403Z,2.55
2019-01-09T13:13:12.609Z,2.17
2019-01-09T13:15:39.894Z,2.27
2019-01-09T13:18:07.298Z,2.30
2019-01-09T13:20:34.636Z,2.10
2019-01-09T13:23:04.718Z,1.83
2019-01-09T13:25:31.922Z,2.90
2019-01-09T13:27:59.224Z,2.77
2019-01-09T13:30:26.447Z,2.00
2019-01-09T13:32:53.810Z,1.70
2019-01-09T13:35:21.015Z,2.30
2019-01-09T13:37:48.324Z,1.47
2019-01-09T13:40:16.832Z,2.20
2019-01-09T13:42:44.139Z,2.08
2019-01-09T13:45:13.965Z,1.80
2019-01-09T13:47:41.690Z,1.67
2019-01-09T13:50:09.273Z,2.12
2019-01-09T13:52:36.475Z,2.30
2019-01-09T13:55:03.962Z,1.85
2019-01-09T13:57:31.183Z,1.95
2019-01-09T13:59:58.515Z,1.80
2019-01-09T14:02:25.878Z,1.42
2019-01-09T14:04:53.250Z,1.80
2019-01-09T14:07:20.523Z,1.43
2019-01-09T14:09:47.756Z,1.70
2019-01-09T14:12:15.108Z,1.25
2019-01-09T14:14:42.468Z,1.62
2019-01-09T14:17:09.858Z,1.40
2019-01-09T14:19:37.084Z,2.22
2019-01-09T14:22:04.449Z,1.80
2019-01-09T14:24:31.657Z,2.05
2019-01-09T14:26:58.886Z,2.00
2019-01-09T14:29:26.092Z,2.20
2019-01-09T14:31:53.343Z,2.40
2019-01-09T14:34:20.562Z,1.98
2019-01-09T14:36:47.966Z,1.95
2019-01-09T14:39:15.344Z,2.08
2019-01-09T14:41:42.599Z,1.70
2019-01-09T14:44:09.904Z,2.17
2019-01-09T14:46:37.109Z,1.85
2019-01-09T14:49:04.416Z,2.33
2019-01-09T14:51:31.629Z,1.98
2019-01-09T14:53:58.835Z,2.20
2019-01-09T14:56:26.167Z,1.87
2019-01-09T14:58:53.478Z,1.85
2019-01-09T15:01:20.799Z,2.00
2019-01-09T15:03:48.179Z,1.85
2019-01-09T15:06:15.598Z,1.80
2019-01-09T15:08:42.905Z,1.62
2019-01-09T15:11:10.226Z,1.62
2019-01-09T15:13:37.464Z,1.32
2019-01-09T15:16:04.716Z,2.05
2019-01-09T15:18:31.980Z,1.50
2019-01-09T15:20:59.214Z,1.67
2019-01-09T15:23:26.577Z,2.00
2019-01-09T15:25:53.932Z,1.80
2019-01-09T15:28:21.275Z,1.90
2019-01-09T15:30:48.518Z,1.90
2019-01-09T15:33:15.843Z,3.05
2019-01-09T15:35:43.282Z,1.85
2019-01-09T15:38:10.605Z,2.25
2019-01-09T15:40:37.904Z,1.82
2019-01-09T15:43:05.324Z,2.40
2019-01-09T15:45:32.672Z,1.82
2019-01-09T15:47:59.912Z,2.05
2019-01-09T15:50:27.354Z,1.67
2019-01-09T15:52:54.722Z,2.08
2019-01-09T15:55:21.968Z,2.08
2019-01-09T15:57:52.350Z,3.40
2019-01-09T16:00:24.755Z,2.87
2019-01-09T16:02:52.042Z,2.60
2019-01-09T16:05:19.253Z,1.90
2019-01-09T16:07:46.570Z,1.60
2019-01-09T16:10:14.880Z,1.72
2019-01-09T16:12:42.272Z,1.55
2019-01-09T16:15:10.607Z,2.02
2019-01-09T16:17:37.877Z,2.35
2019-01-09T16:20:05.550Z,1.90
2019-01-09T16:22:32.877Z,2.15
2019-01-09T16:25:00.314Z,1.65
2019-01-09T16:27:27.656Z,1.75
2019-01-09T16:29:54.986Z,3.67
2019-01-09T16:32:22.231Z,2.30
2019-01-09T16:34:49.612Z,2.05
2019-01-09T16:37:17.004Z,1.85
2019-01-09T16:39:44.319Z,1.50
2019-01-09T16:42:11.660Z,1.98
2019-01-09T16:44:39.067Z,2.40
2019-01-09T16:47:06.432Z,2.42
2019-01-09T16:49:33.780Z,2.05
2019-01-09T16:52:01.131Z,2.02
2019-01-09T16:54:28.380Z,2.12
2019-01-09T16:56:55.701Z,1.42
2019-01-09T16:59:23.028Z,2.30
2019-01-09T17:01:50.361Z,2.45
2019-01-09T17:04:19.872Z,2.30
2019-01-09T17:06:47.204Z,2.58
2019-01-09T17:09:14.579Z,2.33
2019-01-09T17:11:41.840Z,2.20
2019-01-09T17:14:09.353Z,2.08
2019-01-09T17:16:36.692Z,2.00
2019-01-09T17:19:04.093Z,2.10
2019-01-09T17:21:31.442Z,2.40
2019-01-09T17:23:58.852Z,1.77
2019-01-09T17:26:26.180Z,2.00
2019-01-09T17:28:53.678Z,2.80
2019-01-09T17:31:21.068Z,2.20
2019-01-09T17:33:48.860Z,2.25
2019-01-09T17:36:16.250Z,2.45
2019-01-09T17:38:43.663Z,2.30
2019-01-09T17:41:12.403Z,2.85
2019-01-09T17:43:39.968Z,2.40
2019-01-09T17:46:07.253Z,2.55
2019-01-09T17:48:34.629Z,2.72
2019-01-09T17:51:01.878Z,2.45
2019-01-09T17:53:29.242Z,2.15
2019-01-09T17:55:56.569Z,2.22
2019-01-09T17:58:23.924Z,2.25
2019-01-09T18:00:51.364Z,2.87
2019-01-09T18:03:18.737Z,3.00
2019-01-09T18:05:46.084Z,4.40
2019-01-09T18:08:13.496Z,3.08
2019-01-09T18:10:49.727Z,2.80
2019-01-09T18:13:10.096Z,3.02
2019-01-09T18:15:37.433Z,2.47
2019-01-09T18:18:05.999Z,2.50
2019-01-09T18:20:33.375Z,1.98
2019-01-09T18:23:00.928Z,2.92
2019-01-09T18:25:29.620Z,3.27
2019-01-09T18:27:57.023Z,2.52
2019-01-09T18:30:33.510Z,2.75
2019-01-09T18:33:13.434Z,2.70
2019-01-09T18:35:57.269Z,2.45
2019-01-09T18:39:07.347Z,2.65
2019-01-09T18:42:31.796Z,2.60
2019-01-09T18:45:39.800Z,3.20
2019-01-09T18:48:33.768Z,3.70
2019-01-09T18:51:37.091Z,2.58
2019-01-09T18:54:04.497Z,3.12
2019-01-09T18:56:31.905Z,2.55
2019-01-09T18:58:59.269Z,2.83
2019-01-09T19:01:26.956Z,3.17
2019-01-09T19:03:56.118Z,3.02
2019-01-09T19:06:23.447Z,3.08
2019-01-09T19:08:50.846Z,3.10
2019-01-09T19:11:18.204Z,2.83
2019-01-09T19:13:45.614Z,8.35
2019-01-09T19:16:13.049Z,4.28
2019-01-09T19:18:40.398Z,3.20
2019-01-09T19:21:07.825Z,2.70
2019-01-09T19:23:35.334Z,2.83
2019-01-09T19:26:03.122Z,3.50
2019-01-09T19:28:30.672Z,2.67
2019-01-09T19:30:57.989Z,2.77
2019-01-09T19:33:25.469Z,3.12
2019-01-09T19:35:52.837Z,2.62
2019-01-09T19:38:20.187Z,3.10
2019-01-09T19:40:47.620Z,3.08
2019-01-09T19:43:15.205Z,2.72
2019-01-09T19:45:42.485Z,2.30
2019-01-09T19:48:10.091Z,4.03
2019-01-09T19:50:42.498Z,3.25
2019-01-09T19:53:06.880Z,3.80
2019-01-09T19:55:34.224Z,2.77
2019-01-09T19:58:01.564Z,3.02
2019-01-09T20:00:28.900Z,3.00
2019-01-09T20:02:56.300Z,3.37
2019-01-09T20:05:23.699Z,2.83
2019-01-09T20:07:51.192Z,3.02
2019-01-09T20:10:20.494Z,3.22
2019-01-09T20:12:48.157Z,3.30
2019-01-09T20:15:16.726Z,2.83
2019-01-09T20:17:44.180Z,2.30
2019-01-09T20:20:13.669Z,2.55
2019-01-09T20:22:41.152Z,3.15
2019-01-09T20:25:09.002Z,2.67
2019-01-09T20:27:36.440Z,2.55
2019-01-09T20:30:06.407Z,2.50
2019-01-09T20:32:33.915Z,2.20
2019-01-09T20:35:01.343Z,2.80
2019-01-09T20:37:28.788Z,2.80
2019-01-09T20:39:56.207Z,2.98
2019-01-09T20:42:23.644Z,2.37
2019-01-09T20:44:51.249Z,2.20
2019-01-09T20:47:18.640Z,2.35
2019-01-09T20:49:46.061Z,2.33
2019-01-09T20:52:13.613Z,2.42
2019-01-09T20:54:40.947Z,2.27
2019-01-09T20:57:10.211Z,2.33
2019-01-09T20:59:37.591Z,3.35
2019-01-09T21:02:07.909Z,2.15
2019-01-09T21:04:35.290Z,2.67
2019-01-09T21:07:02.943Z,2.40
2019-01-09T21:09:30.342Z,3.08
2019-01-09T21:11:57.603Z,2.60
2019-01-09T21:14:25.035Z,2.02
2019-01-09T21:16:52.368Z,2.77
2019-01-09T21:19:28.732Z,2.08
2019-01-09T21:21:56.157Z,2.33
2019-01-09T21:24:23.388Z,2.95
2019-01-09T21:26:50.792Z,2.60
2019-01-09T21:29:18.260Z,2.15
2019-01-09T21:31:45.554Z,2.50
2019-01-09T21:34:12.932Z,2.72
2019-01-09T21:36:40.165Z,2.40
2019-01-09T21:39:08.436Z,3.27
2019-01-09T21:41:36.050Z,2.10
2019-01-09T21:44:03.408Z,2.62
2019-01-09T21:46:30.831Z,2.60
2019-01-09T21:48:58.133Z,2.70
2019-01-09T21:51:25.332Z,2.35
2019-01-09T21:53:52.656Z,2.40
2019-01-09T21:56:22.660Z,2.30
2019-01-09T21:58:49.987Z,4.00
2019-01-09T22:01:17.398Z,2.77
2019-01-09T22:03:44.614Z,2.58
2019-01-09T22:06:14.300Z,2.37
2019-01-09T22:08:41.660Z,3.05
2019-01-09T22:11:08.984Z,2.87
2019-01-09T22:13:36.286Z,2.83
2019-01-09T22:16:06.238Z,2.25
2019-01-09T22:18:33.661Z,2.95
2019-01-09T22:21:03.658Z,3.20
2019-01-09T22:23:30.974Z,2.50
2019-01-09T22:26:01.052Z,2.37
2019-01-09T22:28:28.417Z,2.70
2019-01-09T22:30:55.683Z,2.77
2019-01-09T22:33:23.040Z,2.70
2019-01-09T22:35:50.257Z,2.42
2019-01-09T22:38:17.681Z,3.08
2019-01-09T22:40:44.885Z,2.95
2019-01-09T22:43:12.224Z,5.00
2019-01-09T22:45:39.630Z,3.42
2019-01-09T22:48:07.007Z,3.02
2019-01-09T22:50:34.245Z,3.12
2019-01-09T22:53:01.567Z,2.25
2019-01-09T22:55:28.774Z,2.40
2019-01-09T22:57:55.971Z,2.98
2019-01-09T23:00:45.597Z,3.02
2019-01-09T23:03:13.159Z,3.15
2019-01-09T23:05:40.686Z,3.02
2019-01-09T23:08:08.024Z,3.02
2019-01-09T23:10:35.364Z,2.77
2019-01-09T23:13:02.584Z,2.85
2019-01-09T23:15:30.246Z,3.62
2019-01-09T23:17:57.796Z,3.22
2019-01-09T23:20:25.328Z,3.17
2019-01-09T23:22:52.539Z,2.77
2019-01-09T23:25:19.934Z,3.00
2019-01-09T23:27:47.142Z,3.20
2019-01-09T23:30:14.501Z,3.05
2019-01-09T23:32:41.884Z,3.12
2019-01-09T23:35:09.605Z,3.45
2019-01-09T23:37:37.044Z,3.17
2019-01-09T23:40:04.668Z,3.27
2019-01-09T23:42:32.204Z,3.15
2019-01-09T23:44:59.524Z,2.58
2019-01-09T23:47:26.876Z,3.33
2019-01-09T23:49:54.196Z,2.50
2019-01-09T23:52:21.699Z,2.92
2019-01-09T23:54:49.129Z,3.10
2019-01-09T23:57:16.452Z,2.95
2019-01-09T23:59:43.776Z,2.80
